Time;durP1;ratioP1;P1;durP2;ratioP2;P2;SDS_P1;SDS_P2;PMS_P1;PMS_P2;Temp;Humidity;BMP_temperature;BMP_pressure;BME280_temperature;BME280_humidity;BME280_pressure;Samples;Min_cycle;Max_cycle;Signal;HPM_P1;HPM_P2
2023/12/05 00:01:16;;;;;;;11.77;7.80;;;;;;;;;;5000476;28;20635;-26
2023/12/05 00:03:43;;;;;;;11.47;7.57;;;;;;;;;;5010488;28;20337;-28
2023/12/05 00:06:12;;;;;;;12.17;7.67;;;;;;;;;;5012898;28;20261;-30
2023/12/05 00:08:40;;;;;;;10.80;7.30;;;;;;;;;;5016231;28;20207;-28
2023/12/05 00:11:07;;;;;;;9.87;6.70;;;;;;;;;;5010236;28;20212;-29
2023/12/05 00:13:35;;;;;;;10.83;6.93;;;;;;;;;;5015972;28;20210;-28
2023/12/05 00:16:02;;;;;;;10.50;6.97;;;;;;;;;;5014419;28;20234;-26
2023/12/05 00:18:30;;;;;;;12.63;7.43;;;;;;;;;;5012534;28;20195;-27
2023/12/05 00:20:57;;;;;;;11.90;7.57;;;;;;;;;;5010214;28;20208;-27
2023/12/05 00:23:25;;;;;;;11.70;7.37;;;;;;;;;;5011876;28;20220;-29
2023/12/05 00:25:53;;;;;;;10.50;7.20;;;;;;;;;;5021431;28;20278;-26
2023/12/05 00:28:20;;;;;;;5.67;3.70;;;;;;;;;;5021698;28;20293;-28
2023/12/05 00:30:47;;;;;;;10.23;6.10;;;;;;;;;;5012529;28;20311;-28
2023/12/05 00:33:14;;;;;;;10.07;6.53;;;;;;;;;;5015076;28;20208;-28
2023/12/05 00:35:42;;;;;;;11.47;8.00;;;;;;;;;;5014953;28;20323;-28
2023/12/05 00:38:09;;;;;;;11.20;7.53;;;;;;;;;;5012528;28;20228;-29
2023/12/05 00:40:38;;;;;;;12.70;7.20;;;;;;;;;;5020946;28;20210;-27
2023/12/05 00:43:05;;;;;;;11.07;7.27;;;;;;;;;;5027059;28;20241;-31
2023/12/05 00:45:33;;;;;;;12.13;7.03;;;;;;;;;;5003542;28;20246;-28
2023/12/05 00:48:00;;;;;;;8.97;6.80;;;;;;;;;;5026483;28;20748;-28
2023/12/05 00:50:27;;;;;;;7.77;5.90;;;;;;;;;;5025046;28;20309;-29
2023/12/05 00:52:54;;;;;;;10.60;6.30;;;;;;;;;;5001570;28;20810;-31
2023/12/05 00:55:22;;;;;;;11.30;7.30;;;;;;;;;;5021983;28;20334;-31
2023/12/05 00:57:50;;;;;;;8.93;6.83;;;;;;;;;;5022032;28;20207;-26
2023/12/05 01:00:18;;;;;;;10.23;6.77;;;;;;;;;;5014957;28;20370;-27
2023/12/05 01:02:45;;;;;;;11.87;6.37;;;;;;;;;;5005694;28;20280;-27
2023/12/05 01:05:12;;;;;;;11.40;6.93;;;;;;;;;;5011424;28;20285;-28
2023/12/05 01:07:39;;;;;;;9.73;6.43;;;;;;;;;;5006389;28;20276;-28
2023/12/05 01:10:07;;;;;;;9.27;6.13;;;;;;;;;;5018040;28;20668;-27
2023/12/05 01:12:34;;;;;;;9.40;5.70;;;;;;;;;;5028247;28;20980;-29
2023/12/05 01:15:03;;;;;;;9.83;6.63;;;;;;;;;;5016887;28;20321;-32
2023/12/05 01:17:30;;;;;;;11.57;7.17;;;;;;;;;;4998078;28;20517;-28
2023/12/05 01:19:58;;;;;;;11.20;6.13;;;;;;;;;;5005616;28;20262;-29
2023/12/05 01:22:25;;;;;;;10.47;6.50;;;;;;;;;;5001312;28;20234;-27
2023/12/05 01:24:55;;;;;;;10.40;5.80;;;;;;;;;;5013145;28;20676;-30
2023/12/05 01:27:22;;;;;;;8.80;6.50;;;;;;;;;;5012748;28;20234;-28
2023/12/05 01:29:50;;;;;;;8.03;5.73;;;;;;;;;;5012809;28;20309;-26
2023/12/05 01:32:18;;;;;;;8.77;5.60;;;;;;;;;;5006107;28;20229;-28
2023/12/05 01:34:46;;;;;;;9.10;5.40;;;;;;;;;;5014968;28;20288;-31
2023/12/05 01:37:13;;;;;;;9.20;5.60;;;;;;;;;;5002122;28;20327;-28
2023/12/05 01:39:40;;;;;;;10.57;6.27;;;;;;;;;;5010768;28;20290;-27
2023/12/05 01:42:07;;;;;;;8.80;5.77;;;;;;;;;;5027066;28;20220;-27
2023/12/05 01:44:34;;;;;;;7.93;5.87;;;;;;;;;;5008820;28;20231;-28
2023/12/05 01:47:03;;;;;;;8.43;5.80;;;;;;;;;;5002657;28;20731;-27
2023/12/05 01:49:33;;;;;;;9.43;5.30;;;;;;;;;;5020770;28;20207;-28
2023/12/05 01:52:01;;;;;;;9.50;6.97;;;;;;;;;;5003440;28;20204;-27
2023/12/05 01:54:28;;;;;;;11.50;6.57;;;;;;;;;;5008323;28;20254;-27
2023/12/05 01:56:56;;;;;;;13.93;7.07;;;;;;;;;;5016415;28;20232;-27
2023/12/05 01:59:23;;;;;;;7.93;5.80;;;;;;;;;;5019495;28;20202;-30
2023/12/05 02:01:51;;;;;;;8.67;6.13;;;;;;;;;;4998820;28;20272;-27
2023/12/05 02:04:18;;;;;;;8.27;6.00;;;;;;;;;;5020061;28;20288;-28
2023/12/05 02:06:46;;;;;;;9.73;5.87;;;;;;;;;;5014072;28;20199;-29
2023/12/05 02:09:14;;;;;;;9.97;6.03;;;;;;;;;;5017439;28;20568;-27
2023/12/05 02:11:42;;;;;;;8.63;6.73;;;;;;;;;;5025755;28;20242;-29
2023/12/05 02:14:10;;;;;;;10.70;6.70;;;;;;;;;;5027546;28;20229;-28
2023/12/05 02:16:38;;;;;;;6.90;5.63;;;;;;;;;;5003998;28;20223;-29
2023/12/05 02:19:10;;;;;;;9.33;5.83;;;;;;;;;;5020583;28;20238;-27
2023/12/05 02:21:37;;;;;;;7.53;5.07;;;;;;;;;;5006224;28;20294;-27
2023/12/05 02:24:11;;;;;;;8.87;5.83;;;;;;;;;;5021659;28;20230;-26
2023/12/05 02:26:43;;;;;;;8.47;6.00;;;;;;;;;;5018400;28;20226;-26
2023/12/05 02:29:12;;;;;;;10.27;6.47;;;;;;;;;;5017159;28;20653;-28
2023/12/05 02:31:39;;;;;;;9.33;6.23;;;;;;;;;;5011562;28;20210;-27
2023/12/05 02:34:06;;;;;;;8.63;5.83;;;;;;;;;;5029791;28;20318;-28
2023/12/05 02:36:36;;;;;;;8.47;5.33;;;;;;;;;;5008781;28;20324;-29
2023/12/05 02:39:13;;;;;;;6.10;4.53;;;;;;;;;;5018978;28;20684;-27
2023/12/05 02:41:45;;;;;;;8.10;5.50;;;;;;;;;;5023211;28;20206;-28
2023/12/05 02:44:14;;;;;;;7.90;5.20;;;;;;;;;;5030753;28;20321;-27
2023/12/05 02:46:42;;;;;;;8.43;5.57;;;;;;;;;;5011199;28;20206;-30
2023/12/05 02:49:11;;;;;;;8.80;5.77;;;;;;;;;;5027300;28;20238;-30
2023/12/05 02:51:38;;;;;;;6.93;5.07;;;;;;;;;;5004715;28;20238;-28
2023/12/05 02:54:06;;;;;;;8.47;5.53;;;;;;;;;;5010417;28;20246;-28
2023/12/05 02:56:34;;;;;;;8.67;5.73;;;;;;;;;;5017108;28;20345;-27
2023/12/05 02:59:01;;;;;;;8.50;4.80;;;;;;;;;;5015456;28;20688;-26
2023/12/05 03:01:31;;;;;;;7.60;4.90;;;;;;;;;;5002839;28;20271;-27
2023/12/05 03:03:58;;;;;;;6.80;5.07;;;;;;;;;;5010230;28;20315;-26
2023/12/05 03:06:27;;;;;;;6.63;4.90;;;;;;;;;;5005528;28;20639;-28
2023/12/05 03:08:54;;;;;;;6.57;5.13;;;;;;;;;;5011143;28;20209;-29
2023/12/05 03:11:21;;;;;;;8.03;4.87;;;;;;;;;;5015753;28;20234;-29
2023/12/05 03:13:48;;;;;;;5.77;4.37;;;;;;;;;;5011110;28;20227;-27
2023/12/05 03:16:15;;;;;;;5.83;4.47;;;;;;;;;;5006373;28;20235;-26
2023/12/05 03:18:44;;;;;;;7.13;4.93;;;;;;;;;;5010880;28;20261;-26
2023/12/05 03:21:16;;;;;;;6.83;4.73;;;;;;;;;;4999711;28;20287;-27
2023/12/05 03:23:43;;;;;;;7.80;5.33;;;;;;;;;;5011961;28;20235;-27
2023/12/05 03:26:17;;;;;;;7.07;4.90;;;;;;;;;;5021308;28;20245;-28
2023/12/05 03:28:44;;;;;;;7.00;4.87;;;;;;;;;;5011429;28;20719;-29
2023/12/05 03:31:13;;;;;;;7.50;4.73;;;;;;;;;;5009666;28;20214;-28
2023/12/05 03:33:40;;;;;;;5.93;4.93;;;;;;;;;;5016797;28;20654;-26
2023/12/05 03:36:09;;;;;;;7.07;4.27;;;;;;;;;;5002777;28;20204;-27
2023/12/05 03:38:38;;;;;;;7.23;4.87;;;;;;;;;;5015536;28;20253;-29
2023/12/05 03:41:06;;;;;;;6.13;4.40;;;;;;;;;;5010328;28;20211;-28
2023/12/05 03:43:33;;;;;;;6.63;4.73;;;;;;;;;;5013755;28;20631;-29
2023/12/05 03:46:00;;;;;;;6.47;4.90;;;;;;;;;;5001544;28;20247;-28
2023/12/05 03:48:27;;;;;;;9.13;5.17;;;;;;;;;;5002363;28;20215;-26
2023/12/05 03:50:54;;;;;;;5.80;4.23;;;;;;;;;;5002999;28;20262;-27
2023/12/05 03:53:23;;;;;;;5.13;3.80;;;;;;;;;;5014034;28;20211;-31
2023/12/05 03:55:50;;;;;;;6.00;3.87;;;;;;;;;;5029596;28;20720;-29
2023/12/05 03:58:18;;;;;;;5.67;3.83;;;;;;;;;;5019665;28;20226;-29
2023/12/05 04:00:45;;;;;;;6.53;4.37;;;;;;;;;;5004921;28;20211;-28
2023/12/05 04:03:12;;;;;;;7.17;4.87;;;;;;;;;;5005882;28;20290;-28
2023/12/05 04:05:39;;;;;;;6.17;4.57;;;;;;;;;;5015102;28;20228;-29
2023/12/05 04:08:07;;;;;;;8.10;5.00;;;;;;;;;;4996487;28;20214;-30
2023/12/05 04:10:35;;;;;;;6.07;4.70;;;;;;;;;;5004365;28;20211;-30
2023/12/05 04:13:02;;;;;;;6.13;4.47;;;;;;;;;;5010066;28;20207;-29
2023/12/05 04:15:29;;;;;;;6.93;4.77;;;;;;;;;;5003813;28;20580;-27
2023/12/05 04:17:57;;;;;;;8.33;5.90;;;;;;;;;;5016174;28;20227;-26
2023/12/05 04:20:24;;;;;;;5.33;4.33;;;;;;;;;;5017985;28;20242;-31
2023/12/05 04:22:51;;;;;;;9.83;5.33;;;;;;;;;;4998663;28;20637;-29
2023/12/05 04:25:18;;;;;;;7.17;4.97;;;;;;;;;;5006195;28;20229;-28
2023/12/05 04:27:47;;;;;;;5.50;3.97;;;;;;;;;;5010009;28;20517;-29
2023/12/05 04:30:14;;;;;;;5.10;3.80;;;;;;;;;;5009783;28;20651;-30
2023/12/05 04:32:42;;;;;;;5.40;4.10;;;;;;;;;;5001093;28;20594;-29
2023/12/05 04:35:09;;;;;;;5.53;4.07;;;;;;;;;;5019462;28;20230;-27
2023/12/05 04:37:36;;;;;;;5.23;3.43;;;;;;;;;;4997718;28;20230;-28
2023/12/05 04:40:03;;;;;;;5.47;4.00;;;;;;;;;;5013115;28;20561;-25
2023/12/05 04:42:31;;;;;;;5.90;3.97;;;;;;;;;;5009099;28;20239;-31
2023/12/05 04:44:59;;;;;;;5.97;4.80;;;;;;;;;;5012496;28;20700;-28
2023/12/05 04:47:26;;;;;;;6.37;4.00;;;;;;;;;;5008925;28;20602;-29
2023/12/05 04:49:54;;;;;;;3.93;3.10;;;;;;;;;;5014516;28;20218;-28
2023/12/05 04:52:21;;;;;;;5.27;3.63;;;;;;;;;;5001026;28;20270;-29
2023/12/05 04:54:48;;;;;;;5.03;4.10;;;;;;;;;;5010206;28;20238;-29
2023/12/05 04:57:15;;;;;;;6.77;4.13;;;;;;;;;;5017472;28;20298;-27
2023/12/05 04:59:42;;;;;;;4.83;3.90;;;;;;;;;;5013597;28;20207;-28
2023/12/05 05:02:12;;;;;;;4.37;3.40;;;;;;;;;;5003087;28;20207;-27
2023/12/05 05:04:41;;;;;;;5.37;3.83;;;;;;;;;;5003289;28;20354;-27
2023/12/05 05:07:08;;;;;;;4.67;3.40;;;;;;;;;;5002259;28;20207;-30
2023/12/05 05:09:36;;;;;;;5.40;3.50;;;;;;;;;;5007210;28;20205;-27
2023/12/05 05:12:08;;;;;;;3.97;3.20;;;;;;;;;;5022684;28;20694;-27
2023/12/05 05:14:36;;;;;;;1.87;1.77;;;;;;;;;;5006539;28;20327;-27
2023/12/05 05:17:03;;;;;;;4.23;3.00;;;;;;;;;;5009701;28;20227;-27
2023/12/05 05:19:32;;;;;;;4.33;2.70;;;;;;;;;;5012552;28;20209;-26
2023/12/05 05:21:59;;;;;;;4.60;3.17;;;;;;;;;;5004091;28;20207;-27
2023/12/05 05:24:27;;;;;;;3.97;3.13;;;;;;;;;;5005811;28;20223;-30
2023/12/05 05:26:54;;;;;;;4.77;3.53;;;;;;;;;;5006606;28;20227;-27
2023/12/05 05:29:21;;;;;;;5.00;4.00;;;;;;;;;;5024597;28;20722;-31
2023/12/05 05:31:49;;;;;;;4.10;3.30;;;;;;;;;;4995718;28;20216;-26
2023/12/05 05:34:16;;;;;;;5.00;4.00;;;;;;;;;;5006519;28;20574;-28
2023/12/05 05:36:44;;;;;;;4.33;3.77;;;;;;;;;;5000155;28;20238;-29
2023/12/05 05:39:11;;;;;;;3.90;3.10;;;;;;;;;;5012059;28;20203;-28
2023/12/05 05:41:38;;;;;;;5.77;4.00;;;;;;;;;;5025909;28;20286;-25
2023/12/05 05:44:06;;;;;;;4.63;3.20;;;;;;;;;;5024149;28;20336;-28
2023/12/05 05:46:33;;;;;;;4.73;3.13;;;;;;;;;;4998915;28;20299;-26
2023/12/05 05:49:00;;;;;;;4.47;3.43;;;;;;;;;;5008606;28;20230;-27
2023/12/05 05:51:27;;;;;;;3.57;3.13;;;;;;;;;;5007773;28;20297;-28
2023/12/05 05:53:57;;;;;;;3.47;2.77;;;;;;;;;;5000301;28;20231;-28
2023/12/05 05:56:24;;;;;;;5.17;3.50;;;;;;;;;;5024058;28;20664;-28
2023/12/05 05:58:51;;;;;;;5.67;3.03;;;;;;;;;;5020318;28;20232;-26
2023/12/05 06:01:18;;;;;;;4.17;3.30;;;;;;;;;;5002488;28;20204;-27
2023/12/05 06:03:46;;;;;;;7.17;3.70;;;;;;;;;;5011479;28;20222;-30
2023/12/05 06:06:13;;;;;;;4.83;3.37;;;;;;;;;;5008276;28;20239;-27
2023/12/05 06:08:40;;;;;;;6.30;3.30;;;;;;;;;;5003087;28;20207;-28
2023/12/05 06:11:09;;;;;;;3.53;2.80;;;;;;;;;;5018191;28;20206;-29
2023/12/05 06:13:36;;;;;;;5.93;3.70;;;;;;;;;;5009400;28;20212;-28
2023/12/05 06:16:03;;;;;;;5.33;3.20;;;;;;;;;;5008095;28;20289;-27
2023/12/05 06:18:30;;;;;;;4.60;3.53;;;;;;;;;;5018844;28;20254;-27
2023/12/05 06:20:57;;;;;;;5.97;4.33;;;;;;;;;;5012719;28;20217;-27
2023/12/05 06:23:25;;;;;;;6.17;4.03;;;;;;;;;;5002996;28;20212;-28
2023/12/05 06:25:52;;;;;;;6.90;4.23;;;;;;;;;;5010340;28;20202;-27
2023/12/05 06:28:20;;;;;;;5.37;3.30;;;;;;;;;;4997792;28;20211;-28
2023/12/05 06:30:47;;;;;;;7.73;3.50;;;;;;;;;;5002576;28;20216;-28
2023/12/05 06:33:14;;;;;;;4.27;3.40;;;;;;;;;;5004965;28;20208;-28
2023/12/05 06:35:42;;;;;;;4.03;3.50;;;;;;;;;;4995757;28;20226;-27
2023/12/05 06:38:09;;;;;;;6.03;4.43;;;;;;;;;;5001860;28;20220;-26
2023/12/05 06:40:36;;;;;;;5.50;3.37;;;;;;;;;;5008483;28;20222;-30
2023/12/05 06:43:03;;;;;;;9.23;4.30;;;;;;;;;;5004379;28;20214;-27
2023/12/05 06:45:34;;;;;;;3.87;3.13;;;;;;;;;;5001997;28;20318;-28
2023/12/05 06:48:01;;;;;;;4.37;3.00;;;;;;;;;;5011296;28;20286;-26
2023/12/05 06:50:28;;;;;;;3.13;2.83;;;;;;;;;;5019741;28;20205;-28
2023/12/05 06:52:57;;;;;;;5.80;3.20;;;;;;;;;;5006724;28;20224;-26
2023/12/05 06:55:24;;;;;;;5.37;3.07;;;;;;;;;;5027863;28;20226;-27
2023/12/05 06:57:52;;;;;;;7.07;3.53;;;;;;;;;;5021169;28;20251;-26
2023/12/05 07:00:19;;;;;;;3.93;3.43;;;;;;;;;;5016481;28;20681;-25
2023/12/05 07:02:48;;;;;;;3.97;3.23;;;;;;;;;;5005292;28;20202;-28
2023/12/05 07:05:16;;;;;;;6.43;3.67;;;;;;;;;;5016440;28;20262;-27
2023/12/05 07:07:43;;;;;;;4.27;3.17;;;;;;;;;;4995107;28;20213;-28
2023/12/05 07:10:10;;;;;;;4.67;2.87;;;;;;;;;;5017199;28;20198;-25
2023/12/05 07:12:37;;;;;;;3.90;2.97;;;;;;;;;;5010591;28;20231;-27
2023/12/05 07:15:05;;;;;;;6.67;2.90;;;;;;;;;;5006235;28;20319;-26
2023/12/05 07:17:32;;;;;;;5.47;3.40;;;;;;;;;;5004571;28;20255;-28
2023/12/05 07:20:00;;;;;;;4.27;2.93;;;;;;;;;;5032317;28;20213;-29
2023/12/05 07:22:28;;;;;;;6.03;3.93;;;;;;;;;;5002219;28;20204;-27
2023/12/05 07:24:55;;;;;;;5.37;4.10;;;;;;;;;;5015815;28;20223;-28
2023/12/05 07:27:22;;;;;;;4.53;3.50;;;;;;;;;;5014316;28;20445;-27
2023/12/05 07:29:49;;;;;;;4.33;3.43;;;;;;;;;;5013463;28;20203;-29
2023/12/05 07:32:16;;;;;;;3.50;2.90;;;;;;;;;;5009163;28;20212;-26
2023/12/05 07:34:44;;;;;;;8.67;4.50;;;;;;;;;;5011787;28;20227;-26
2023/12/05 07:37:12;;;;;;;5.97;4.00;;;;;;;;;;4998177;28;20211;-27
2023/12/05 07:39:39;;;;;;;9.33;4.90;;;;;;;;;;5005570;28;20302;-28
2023/12/05 07:42:06;;;;;;;5.23;3.73;;;;;;;;;;5021626;28;20213;-28
2023/12/05 07:44:34;;;;;;;5.70;4.33;;;;;;;;;;5011847;28;20230;-27
2023/12/05 07:47:01;;;;;;;9.80;4.47;;;;;;;;;;5002564;28;20291;-28
2023/12/05 07:49:28;;;;;;;8.40;5.03;;;;;;;;;;5013702;28;20293;-28
2023/12/05 07:51:55;;;;;;;6.80;4.50;;;;;;;;;;5009328;28;20200;-28
2023/12/05 07:54:24;;;;;;;6.37;3.83;;;;;;;;;;5019095;28;20234;-27
2023/12/05 07:56:51;;;;;;;4.73;3.90;;;;;;;;;;5021707;28;20206;-29
2023/12/05 07:59:18;;;;;;;8.63;4.10;;;;;;;;;;5011210;28;20211;-27
2023/12/05 08:01:46;;;;;;;8.17;4.87;;;;;;;;;;5008314;28;20271;-27
2023/12/05 08:04:13;;;;;;;6.57;4.43;;;;;;;;;;5027139;28;20230;-28
2023/12/05 08:06:41;;;;;;;6.97;4.70;;;;;;;;;;5005744;28;20207;-27
2023/12/05 08:09:08;;;;;;;5.70;4.30;;;;;;;;;;5011280;28;20202;-28
2023/12/05 08:11:38;;;;;;;5.70;4.03;;;;;;;;;;5014761;28;20203;-28
2023/12/05 08:14:05;;;;;;;4.63;3.70;;;;;;;;;;5014153;28;20313;-26
2023/12/05 08:16:32;;;;;;;5.07;3.63;;;;;;;;;;5007547;28;20212;-27
2023/12/05 08:18:59;;;;;;;4.43;2.83;;;;;;;;;;5019516;28;20210;-27
2023/12/05 08:21:26;;;;;;;6.27;4.13;;;;;;;;;;5016436;28;20207;-27
2023/12/05 08:23:53;;;;;;;4.97;4.47;;;;;;;;;;5013622;28;20314;-26
2023/12/05 08:26:20;;;;;;;8.27;5.30;;;;;;;;;;5012483;28;20565;-25
2023/12/05 08:28:57;;;;;;;6.47;4.40;;;;;;;;;;5013030;28;20203;-28
2023/12/05 08:31:26;;;;;;;5.47;3.93;;;;;;;;;;5001453;28;20297;-27
2023/12/05 08:33:53;;;;;;;6.50;4.67;;;;;;;;;;5016936;28;20226;-27
2023/12/05 08:36:20;;;;;;;5.83;4.40;;;;;;;;;;5001639;28;20208;-27
2023/12/05 08:38:47;;;;;;;7.73;5.33;;;;;;;;;;5006417;28;20228;-28
2023/12/05 08:41:19;;;;;;;8.20;4.60;;;;;;;;;;5007494;28;20230;-27
2023/12/05 08:43:46;;;;;;;5.87;4.37;;;;;;;;;;4998797;28;20223;-27
2023/12/05 08:46:13;;;;;;;6.47;4.60;;;;;;;;;;5001006;28;20610;-26
2023/12/05 08:48:41;;;;;;;5.67;4.57;;;;;;;;;;5011170;28;20211;-28
2023/12/05 08:51:15;;;;;;;5.40;4.30;;;;;;;;;;4999507;28;20214;-28
2023/12/05 08:53:42;;;;;;;5.23;4.37;;;;;;;;;;5005729;28;20228;-26
2023/12/05 08:56:09;;;;;;;6.53;4.40;;;;;;;;;;5012713;28;20294;-29
2023/12/05 08:58:46;;;;;;;5.80;4.27;;;;;;;;;;5007567;28;20227;-28
2023/12/05 09:01:15;;;;;;;5.87;4.10;;;;;;;;;;5015217;28;20206;-28
2023/12/05 09:03:46;;;;;;;6.47;3.87;;;;;;;;;;5007902;28;20234;-28
2023/12/05 09:06:13;;;;;;;4.57;3.90;;;;;;;;;;5003612;28;20204;-28
2023/12/05 09:08:46;;;;;;;7.20;4.73;;;;;;;;;;5008093;28;20203;-31
2023/12/05 09:11:14;;;;;;;4.43;3.27;;;;;;;;;;5018016;28;20195;-28
2023/12/05 09:13:41;;;;;;;7.30;4.70;;;;;;;;;;5004035;28;20231;-29
2023/12/05 09:16:09;;;;;;;6.10;4.40;;;;;;;;;;5006027;28;20290;-27
2023/12/05 09:18:36;;;;;;;6.07;4.30;;;;;;;;;;5020190;28;20231;-27
2023/12/05 09:21:05;;;;;;;5.47;4.07;;;;;;;;;;5012747;28;20699;-26
2023/12/05 09:23:32;;;;;;;4.80;3.90;;;;;;;;;;5000106;28;20627;-27
2023/12/05 09:25:59;;;;;;;5.13;4.27;;;;;;;;;;5004340;28;20207;-27
2023/12/05 09:28:27;;;;;;;5.87;4.23;;;;;;;;;;5017424;28;20205;-30
2023/12/05 09:30:55;;;;;;;20.37;18.57;;;;;;;;;;5001690;28;20233;-27
2023/12/05 09:33:22;;;;;;;7.43;6.73;;;;;;;;;;5020318;28;20224;-28
2023/12/05 09:35:49;;;;;;;5.97;4.13;;;;;;;;;;5007993;28;20204;-27
2023/12/05 09:38:17;;;;;;;2.70;2.50;;;;;;;;;;5023117;28;20210;-30
2023/12/05 09:40:45;;;;;;;4.90;2.50;;;;;;;;;;5013382;28;20207;-26
2023/12/05 09:43:12;;;;;;;3.17;2.47;;;;;;;;;;5011647;28;20568;-28
2023/12/05 09:45:41;;;;;;;2.43;2.00;;;;;;;;;;5003045;28;20680;-29
2023/12/05 09:48:09;;;;;;;5.17;2.70;;;;;;;;;;5018112;28;20297;-27
2023/12/05 09:50:37;;;;;;;2.20;1.87;;;;;;;;;;5007861;28;20242;-28
2023/12/05 09:53:09;;;;;;;2.40;2.13;;;;;;;;;;5016500;28;20211;-30
2023/12/05 09:55:38;;;;;;;5.30;3.20;;;;;;;;;;5022939;28;20321;-28
2023/12/05 09:58:05;;;;;;;5.50;3.90;;;;;;;;;;5004462;28;20273;-29
2023/12/05 10:00:32;;;;;;;5.03;3.20;;;;;;;;;;5006075;28;20217;-28
2023/12/05 10:03:00;;;;;;;4.53;3.47;;;;;;;;;;5022147;28;20206;-28
2023/12/05 10:05:29;;;;;;;9.57;4.30;;;;;;;;;;5014754;28;20223;-26
2023/12/05 10:07:56;;;;;;;3.43;2.10;;;;;;;;;;5003140;28;20326;-29
2023/12/05 10:10:24;;;;;;;2.70;1.93;;;;;;;;;;5025525;28;20214;-29
2023/12/05 10:12:53;;;;;;;3.87;1.77;;;;;;;;;;5021516;28;20215;-26
2023/12/05 10:15:20;;;;;;;2.30;1.20;;;;;;;;;;5005972;28;20311;-26
2023/12/05 10:17:47;;;;;;;2.00;1.23;;;;;;;;;;5019315;28;20208;-26
2023/12/05 10:20:15;;;;;;;1.40;1.10;;;;;;;;;;5011335;28;20230;-27
2023/12/05 10:22:42;;;;;;;1.47;1.37;;;;;;;;;;5003410;28;20753;-31
2023/12/05 10:25:09;;;;;;;2.70;1.50;;;;;;;;;;5014542;28;20229;-28
2023/12/05 10:27:36;;;;;;;3.53;1.70;;;;;;;;;;5023099;28;20623;-29
2023/12/05 10:30:05;;;;;;;1.80;1.70;;;;;;;;;;5000458;28;20206;-28
2023/12/05 10:32:32;;;;;;;5.67;3.57;;;;;;;;;;5022596;28;20444;-29
2023/12/05 10:35:01;;;;;;;5.30;2.60;;;;;;;;;;5025917;28;20226;-28
2023/12/05 10:37:29;;;;;;;3.17;2.53;;;;;;;;;;5014488;28;20295;-29
2023/12/05 10:39:58;;;;;;;4.13;3.07;;;;;;;;;;5024251;28;20235;-27
2023/12/05 10:42:26;;;;;;;2.33;1.60;;;;;;;;;;5020546;28;20204;-29
2023/12/05 10:44:53;;;;;;;2.63;1.77;;;;;;;;;;5006778;28;20236;-28
2023/12/05 10:47:22;;;;;;;1.77;1.37;;;;;;;;;;5009093;28;20199;-26
2023/12/05 10:49:49;;;;;;;5.30;1.73;;;;;;;;;;5015131;28;20204;-28
2023/12/05 10:52:17;;;;;;;3.30;1.57;;;;;;;;;;5002867;28;20672;-27
2023/12/05 10:54:45;;;;;;;2.13;1.37;;;;;;;;;;5007277;28;20231;-28
2023/12/05 10:57:12;;;;;;;1.57;1.20;;;;;;;;;;5022517;28;20203;-26
2023/12/05 10:59:40;;;;;;;1.43;1.33;;;;;;;;;;5004962;28;20224;-28
2023/12/05 11:02:11;;;;;;;1.57;1.23;;;;;;;;;;5012255;28;20297;-29
2023/12/05 11:04:41;;;;;;;3.20;1.30;;;;;;;;;;5018084;28;20227;-28
2023/12/05 11:07:10;;;;;;;1.33;1.23;;;;;;;;;;5018927;28;20233;-27
2023/12/05 11:09:37;;;;;;;2.00;1.43;;;;;;;;;;5018636;28;20209;-27
2023/12/05 11:12:06;;;;;;;3.20;1.23;;;;;;;;;;5014453;28;20227;-27
2023/12/05 11:14:35;;;;;;;1.53;1.10;;;;;;;;;;5013984;28;20230;-28
2023/12/05 11:17:05;;;;;;;2.10;1.30;;;;;;;;;;5007595;28;20274;-28
2023/12/05 11:19:46;;;;;;;1.10;1.00;;;;;;;;;;5018518;28;20219;-29
2023/12/05 11:22:20;;;;;;;1.50;1.23;;;;;;;;;;4998128;28;20199;-28
2023/12/05 11:24:57;;;;;;;1.33;1.00;;;;;;;;;;5014829;28;20230;-29
2023/12/05 11:27:33;;;;;;;1.10;1.00;;;;;;;;;;5022915;28;20253;-26
2023/12/05 11:30:20;;;;;;;3.47;1.50;;;;;;;;;;5023390;28;20205;-28
2023/12/05 11:32:54;;;;;;;1.50;1.17;;;;;;;;;;4985642;28;20246;-28
2023/12/05 11:35:25;;;;;;;2.83;1.37;;;;;;;;;;5027658;28;20241;-28
2023/12/05 11:38:04;;;;;;;1.23;1.00;;;;;;;;;;5016051;28;20223;-27
2023/12/05 11:40:31;;;;;;;0.53;0.53;;;;;;;;;;5013890;28;20704;-29
2023/12/05 11:43:16;;;;;;;1.20;0.90;;;;;;;;;;5012870;28;20254;-28
2023/12/05 11:45:44;;;;;;;3.30;0.83;;;;;;;;;;5004589;28;20314;-31
2023/12/05 11:48:11;;;;;;;0.57;0.57;;;;;;;;;;5021489;28;20262;-29
2023/12/05 11:50:43;;;;;;;1.20;0.70;;;;;;;;;;5019540;28;20210;-28
2023/12/05 11:53:11;;;;;;;0.77;0.67;;;;;;;;;;5010465;28;20213;-28
2023/12/05 11:55:41;;;;;;;0.40;0.40;;;;;;;;;;5023307;28;20237;-28
2023/12/05 11:58:25;;;;;;;0.53;0.53;;;;;;;;;;5014331;28;20209;-30
2023/12/05 12:00:52;;;;;;;0.40;0.40;;;;;;;;;;5008393;28;20231;-29
2023/12/05 12:03:19;;;;;;;0.67;0.60;;;;;;;;;;5012372;28;20207;-28
2023/12/05 12:05:50;;;;;;;0.60;0.60;;;;;;;;;;5008793;28;21087;-27
2023/12/05 12:08:17;;;;;;;0.33;0.30;;;;;;;;;;5008773;28;20733;-27
2023/12/05 12:10:44;;;;;;;1.40;0.47;;;;;;;;;;5029351;28;20297;-27
2023/12/05 12:13:11;;;;;;;0.50;0.50;;;;;;;;;;5005582;28;20200;-26
2023/12/05 12:15:39;;;;;;;0.37;0.37;;;;;;;;;;5007728;28;20234;-27
2023/12/05 12:18:06;;;;;;;0.47;0.40;;;;;;;;;;5021354;28;20211;-27
2023/12/05 12:20:34;;;;;;;1.17;0.20;;;;;;;;;;5013549;28;20223;-27
2023/12/05 12:23:03;;;;;;;0.63;0.40;;;;;;;;;;5015834;28;20211;-28
2023/12/05 12:25:30;;;;;;;0.40;0.37;;;;;;;;;;5019092;28;20581;-27
2023/12/05 12:27:57;;;;;;;1.93;0.43;;;;;;;;;;5024078;28;20207;-30
2023/12/05 12:30:25;;;;;;;1.30;0.53;;;;;;;;;;5009180;28;20208;-27
2023/12/05 12:32:56;;;;;;;0.50;0.50;;;;;;;;;;5004299;28;20217;-29
2023/12/05 12:35:24;;;;;;;1.13;0.50;;;;;;;;;;5017342;28;20231;-30
2023/12/05 12:37:52;;;;;;;0.40;0.40;;;;;;;;;;5010911;28;20297;-27
2023/12/05 12:40:21;;;;;;;1.60;0.37;;;;;;;;;;5024123;28;20226;-29
2023/12/05 12:42:50;;;;;;;0.60;0.60;;;;;;;;;;5017279;28;20211;-27
2023/12/05 12:45:17;;;;;;;2.03;0.50;;;;;;;;;;5010992;28;20369;-28
2023/12/05 12:47:44;;;;;;;0.73;0.43;;;;;;;;;;5004345;28;20217;-29
2023/12/05 12:50:11;;;;;;;1.50;0.50;;;;;;;;;;5023354;28;20209;-27
2023/12/05 12:52:41;;;;;;;0.50;0.50;;;;;;;;;;5007405;28;20214;-27
2023/12/05 12:55:08;;;;;;;1.27;0.60;;;;;;;;;;5014004;28;20694;-27
2023/12/05 12:57:37;;;;;;;1.53;1.00;;;;;;;;;;5025910;28;20211;-29
2023/12/05 13:00:05;;;;;;;0.77;0.43;;;;;;;;;;5007971;28;20230;-28
2023/12/05 13:02:32;;;;;;;0.67;0.50;;;;;;;;;;5010673;28;20214;-28
2023/12/05 13:05:00;;;;;;;0.40;0.40;;;;;;;;;;5014721;28;20519;-28
2023/12/05 13:07:29;;;;;;;0.50;0.50;;;;;;;;;;4999353;28;20211;-28
2023/12/05 13:09:58;;;;;;;1.23;0.50;;;;;;;;;;5012681;28;20242;-26
2023/12/05 13:12:26;;;;;;;0.80;0.40;;;;;;;;;;5027527;28;20207;-27
2023/12/05 13:14:54;;;;;;;2.80;1.00;;;;;;;;;;5004434;28;20238;-28
2023/12/05 13:17:21;;;;;;;1.43;0.60;;;;;;;;;;5010211;28;20207;-26
2023/12/05 13:19:48;;;;;;;0.63;0.50;;;;;;;;;;5011982;28;20226;-27
2023/12/05 13:22:16;;;;;;;1.13;0.60;;;;;;;;;;5006769;28;20278;-28
2023/12/05 13:24:43;;;;;;;0.60;0.47;;;;;;;;;;5012414;28;20227;-27
2023/12/05 13:27:10;;;;;;;0.27;0.27;;;;;;;;;;5012573;28;20211;-28
2023/12/05 13:29:37;;;;;;;0.80;0.53;;;;;;;;;;5012457;28;20207;-30
2023/12/05 13:32:06;;;;;;;0.70;0.60;;;;;;;;;;5007326;28;20215;-27
2023/12/05 13:34:33;;;;;;;1.60;0.80;;;;;;;;;;5007921;28;20243;-28
2023/12/05 13:37:00;;;;;;;1.83;0.80;;;;;;;;;;5004217;28;20211;-26
2023/12/05 13:39:27;;;;;;;1.20;1.10;;;;;;;;;;5008769;28;20217;-27
2023/12/05 13:41:54;;;;;;;1.20;1.10;;;;;;;;;;5019592;28;20203;-27
2023/12/05 13:44:22;;;;;;;1.00;0.90;;;;;;;;;;5013955;28;20229;-28
2023/12/05 13:46:49;;;;;;;1.43;1.20;;;;;;;;;;5003338;28;20291;-27
2023/12/05 13:49:17;;;;;;;3.47;1.40;;;;;;;;;;5010989;28;20298;-29
2023/12/05 13:51:45;;;;;;;1.83;1.27;;;;;;;;;;4998684;28;20210;-26
2023/12/05 13:54:12;;;;;;;4.70;1.80;;;;;;;;;;5010848;28;20235;-27
2023/12/05 13:56:39;;;;;;;1.90;1.50;;;;;;;;;;5011702;28;20243;-29
2023/12/05 13:59:06;;;;;;;3.03;2.20;;;;;;;;;;4998265;28;20294;-26
2023/12/05 14:01:33;;;;;;;2.13;1.93;;;;;;;;;;5012778;28;20223;-29
2023/12/05 14:04:01;;;;;;;3.07;1.67;;;;;;;;;;5002703;28;20707;-28
2023/12/05 14:06:29;;;;;;;1.83;1.60;;;;;;;;;;5001995;28;20207;-28
2023/12/05 14:08:56;;;;;;;3.27;1.67;;;;;;;;;;5009742;28;20212;-28
2023/12/05 14:11:23;;;;;;;4.33;1.93;;;;;;;;;;5019322;28;20293;-26
2023/12/05 14:13:50;;;;;;;2.30;1.90;;;;;;;;;;5034689;28;20445;-27
2023/12/05 14:16:18;;;;;;;4.47;1.93;;;;;;;;;;5010737;28;20209;-27
2023/12/05 14:18:45;;;;;;;1.93;1.57;;;;;;;;;;5013629;28;20207;-28
2023/12/05 14:21:12;;;;;;;4.17;1.43;;;;;;;;;;5015903;28;20226;-27
2023/12/05 14:23:40;;;;;;;1.60;1.50;;;;;;;;;;5010886;28;20295;-29
2023/12/05 14:26:08;;;;;;;3.40;1.77;;;;;;;;;;5016117;28;20218;-27
2023/12/05 14:28:35;;;;;;;2.00;1.30;;;;;;;;;;5023747;28;20306;-28
2023/12/05 14:31:02;;;;;;;1.40;1.30;;;;;;;;;;5010121;28;20222;-28
2023/12/05 14:33:29;;;;;;;2.50;1.30;;;;;;;;;;5023166;28;20302;-28
2023/12/05 14:35:56;;;;;;;2.63;1.70;;;;;;;;;;5015325;28;20313;-27
2023/12/05 14:38:22;;;;;;;1.50;1.33;;;;;;;;;;5011498;28;20265;-28
2023/12/05 14:41:00;;;;;;;1.47;1.37;;;;;;;;;;5030481;28;20229;-29
2023/12/05 14:43:28;;;;;;;1.60;1.10;;;;;;;;;;5018035;28;20289;-27
2023/12/05 14:45:55;;;;;;;1.03;1.03;;;;;;;;;;5020642;28;20220;-28